createdAt,value
2022-08-07T00:01:44.272Z,35.75
2022-08-07T00:04:24.613Z,35.72
2022-08-07T00:07:05.143Z,35.72
2022-08-07T00:10:18.759Z,35.71
2022-08-07T00:12:21.740Z,35.69
2022-08-07T00:14:54.540Z,35.68
2022-08-07T00:17:04.967Z,35.66
2022-08-07T00:20:00.963Z,35.65
2022-08-07T00:22:35.243Z,35.64
2022-08-07T00:25:26.319Z,35.59
2022-08-07T00:28:08.831Z,35.56
2022-08-07T00:30:54.103Z,35.54
2022-08-07T00:33:12.917Z,35.52
2022-08-07T00:35:56.283Z,35.47
2022-08-07T00:38:31.112Z,35.42
2022-08-07T00:40:51.542Z,35.39
2022-08-07T00:43:10.034Z,35.34
2022-08-07T00:45:41.386Z,35.31
2022-08-07T00:48:32.678Z,35.29
2022-08-07T00:51:56.432Z,35.29
2022-08-07T00:54:13.506Z,35.27
2022-08-07T00:56:57.535Z,35.24
2022-08-07T00:59:42.842Z,35.24
2022-08-07T01:02:51.077Z,35.21
2022-08-07T01:05:26.806Z,35.20
2022-08-07T01:07:58.249Z,35.16
2022-08-07T01:10:28.229Z,35.11
2022-08-07T01:13:09.639Z,35.07
2022-08-07T01:16:06.098Z,35.03
2022-08-07T01:18:33.576Z,35.00
2022-08-07T01:20:59.462Z,34.98
2022-08-07T01:23:38.027Z,34.93
2022-08-07T01:26:47.917Z,34.89
2022-08-07T01:29:16.830Z,34.85
2022-08-07T01:31:42.811Z,34.80
2022-08-07T01:34:04.783Z,34.73
2022-08-07T01:36:36.418Z,34.67
2022-08-07T01:39:41.116Z,34.60
2022-08-07T01:42:57.582Z,34.52
2022-08-07T01:45:46.692Z,34.46
2022-08-07T01:48:33.681Z,34.39
2022-08-07T01:50:50.778Z,34.32
2022-08-07T01:53:10.968Z,34.25
2022-08-07T01:56:07.466Z,34.16
2022-08-07T01:59:05.387Z,34.10
2022-08-07T02:02:02.779Z,34.05
2022-08-07T02:04:56.693Z,34.00
2022-08-07T02:07:11.785Z,33.94
2022-08-07T02:09:58.693Z,33.89
2022-08-07T02:12:18.438Z,33.82
2022-08-07T02:15:05.931Z,33.74
2022-08-07T02:17:49.252Z,33.68
2022-08-07T02:20:09.580Z,33.60
2022-08-07T02:22:41.461Z,33.55
2022-08-07T02:25:22.044Z,33.48
2022-08-07T02:28:04.325Z,33.43
2022-08-07T02:31:24.684Z,33.37
2022-08-07T02:34:02.856Z,33.26
2022-08-07T02:36:56.652Z,33.19
2022-08-07T02:40:31.093Z,33.11
2022-08-07T02:43:10.812Z,33.01
2022-08-07T02:46:15.127Z,32.95
2022-08-07T02:48:47.071Z,32.89
2022-08-07T02:51:42.019Z,32.85
2022-08-07T02:54:25.163Z,32.79
2022-08-07T02:57:10.617Z,32.71
2022-08-07T03:00:10.393Z,32.65
2022-08-07T03:03:06.042Z,32.57
2022-08-07T03:05:38.150Z,32.48
2022-08-07T03:08:07.502Z,32.41
2022-08-07T03:10:47.552Z,32.34
2022-08-07T03:13:39.073Z,32.25
2022-08-07T03:16:00.990Z,32.17
2022-08-07T03:18:34.881Z,32.11
2022-08-07T03:21:33.017Z,32.04
2022-08-07T03:24:28.074Z,31.96
2022-08-07T03:26:58.151Z,31.88
2022-08-07T03:29:21.069Z,31.80
2022-08-07T03:31:56.290Z,31.75
2022-08-07T03:34:33.668Z,31.66
2022-08-07T03:37:27.636Z,31.57
2022-08-07T03:40:14.846Z,31.47
2022-08-07T03:42:41.839Z,31.39
2022-08-07T03:45:30.679Z,31.30
2022-08-07T03:48:02.237Z,31.21
2022-08-07T03:50:57.798Z,31.14
2022-08-07T03:54:33.300Z,31.05
2022-08-07T03:57:03.511Z,30.95
2022-08-07T03:59:46.701Z,30.87
2022-08-07T04:03:11.038Z,30.79
2022-08-07T04:06:04.144Z,30.67
2022-08-07T04:08:37.412Z,30.56
2022-08-07T04:12:27.715Z,30.44
2022-08-07T04:14:38.085Z,30.33
2022-08-07T04:17:04.731Z,30.24
2022-08-07T04:20:08.389Z,30.13
2022-08-07T04:23:19.370Z,30.03
2022-08-07T04:26:08.563Z,29.93
2022-08-07T04:29:12.371Z,29.86
2022-08-07T04:31:39.079Z,29.77
2022-08-07T04:34:24.054Z,29.68
2022-08-07T04:36:49.462Z,29.60
2022-08-07T04:39:08.700Z,29.53
2022-08-07T04:41:57.910Z,29.43
2022-08-07T04:44:21.329Z,29.35
2022-08-07T04:47:05.049Z,29.26
2022-08-07T04:50:40.648Z,29.17
2022-08-07T04:54:01.638Z,29.03
2022-08-07T04:58:15.729Z,28.92
2022-08-07T05:00:14.400Z,28.80
2022-08-07T05:03:59.799Z,28.68
2022-08-07T05:07:19.846Z,28.57
2022-08-07T05:09:45.414Z,28.47
2022-08-07T05:12:46.433Z,28.40
2022-08-07T05:15:30.000Z,28.32
2022-08-07T05:17:52.203Z,28.25
2022-08-07T05:20:57.567Z,28.19
2022-08-07T05:23:46.808Z,28.11
2022-08-07T05:26:13.471Z,28.06
2022-08-07T05:29:04.291Z,28.01
2022-08-07T05:31:34.763Z,27.94
2022-08-07T05:34:04.488Z,27.89
2022-08-07T05:36:35.654Z,27.83
2022-08-07T05:39:01.265Z,27.79
2022-08-07T05:42:00.393Z,27.74
2022-08-07T05:44:12.590Z,27.68
2022-08-07T05:46:26.481Z,27.61
2022-08-07T05:48:58.266Z,27.54
2022-08-07T05:51:16.733Z,27.46
2022-08-07T05:54:13.024Z,27.39
2022-08-07T05:56:07.330Z,27.32
2022-08-07T05:58:36.208Z,27.25
2022-08-07T06:01:10.954Z,27.17
2022-08-07T06:03:53.265Z,27.08
2022-08-07T06:06:56.687Z,26.99
2022-08-07T06:10:04.783Z,26.91
2022-08-07T06:12:32.964Z,26.83
2022-08-07T06:14:49.627Z,26.76
2022-08-07T06:17:15.982Z,26.70
2022-08-07T06:20:04.293Z,26.63
2022-08-07T06:22:50.543Z,26.56
2022-08-07T06:26:14.141Z,26.46
2022-08-07T06:28:37.466Z,26.37
2022-08-07T06:31:47.073Z,26.27
2022-08-07T06:34:07.930Z,26.17
2022-08-07T06:36:56.781Z,26.08
2022-08-07T06:40:13.502Z,26.01
2022-08-07T06:43:03.546Z,25.93
2022-08-07T06:45:44.271Z,25.85
2022-08-07T06:48:26.972Z,25.78
2022-08-07T06:50:47.945Z,25.71
2022-08-07T06:55:28.411Z,25.64
2022-08-07T06:56:03.018Z,25.55
2022-08-07T06:58:32.097Z,25.49
2022-08-07T07:01:20.836Z,25.44
2022-08-07T07:03:49.340Z,25.36
2022-08-07T07:06:39.423Z,25.29
2022-08-07T07:10:13.479Z,25.23
2022-08-07T07:13:55.507Z,25.16
2022-08-07T07:16:01.761Z,25.08
2022-08-07T07:18:47.736Z,25.02
2022-08-07T07:20:57.177Z,24.92
2022-08-07T07:24:08.258Z,24.84
2022-08-07T07:26:35.138Z,24.77
2022-08-07T07:29:23.486Z,24.70
2022-08-07T07:31:52.739Z,24.61
2022-08-07T07:34:32.177Z,24.51
2022-08-07T07:38:02.935Z,24.43
2022-08-07T07:41:02.448Z,24.33
2022-08-07T07:44:25.700Z,24.23
2022-08-07T07:46:55.665Z,24.12
2022-08-07T07:50:34.008Z,24.06
2022-08-07T07:52:58.309Z,23.98
2022-08-07T07:56:00.800Z,23.93
2022-08-07T07:59:11.062Z,23.85
2022-08-07T08:02:33.919Z,23.80
2022-08-07T08:05:00.842Z,23.74
2022-08-07T08:08:01.919Z,23.68
2022-08-07T08:11:02.498Z,23.61
2022-08-07T08:13:52.924Z,23.54
2022-08-07T08:17:56.305Z,23.46
2022-08-07T08:20:31.832Z,23.36
2022-08-07T08:23:57.900Z,23.25
2022-08-07T08:27:10.508Z,23.17
2022-08-07T08:30:22.398Z,23.07
2022-08-07T08:33:49.829Z,22.96
2022-08-07T08:36:30.118Z,22.88
2022-08-07T08:39:55.179Z,22.81
2022-08-07T08:43:42.847Z,22.73
2022-08-07T08:46:56.611Z,22.64
2022-08-07T08:50:12.472Z,22.57
2022-08-07T08:53:29.621Z,22.47
2022-08-07T08:57:02.440Z,22.36
2022-08-07T09:00:28.722Z,22.28
2022-08-07T09:03:48.004Z,22.18
2022-08-07T09:07:03.410Z,22.08
2022-08-07T09:10:18.153Z,21.99
2022-08-07T09:13:37.514Z,21.90
2022-08-07T09:16:47.525Z,21.82
2022-08-07T09:19:55.165Z,21.76
2022-08-07T09:24:35.069Z,21.69
2022-08-07T09:26:51.166Z,21.63
2022-08-07T09:30:27.930Z,21.55
2022-08-07T09:33:57.013Z,21.46
2022-08-07T09:37:13.383Z,21.39
2022-08-07T09:41:03.547Z,21.32
2022-08-07T09:44:58.675Z,21.23
2022-08-07T09:48:19.113Z,21.14
2022-08-07T09:52:16.021Z,21.01
2022-08-07T09:55:29.564Z,20.95
2022-08-07T09:58:56.520Z,20.88
2022-08-07T10:02:32.975Z,20.85
2022-08-07T10:05:59.429Z,20.82
2022-08-07T10:09:23.819Z,20.76
2022-08-07T10:13:29.683Z,20.69
2022-08-07T10:17:16.874Z,20.63
2022-08-07T10:21:19.785Z,20.57
2022-08-07T10:25:07.631Z,20.50
2022-08-07T10:28:43.400Z,20.43
2022-08-07T10:31:53.235Z,20.33
2022-08-07T10:34:37.447Z,20.28
2022-08-07T10:38:21.364Z,20.21
2022-08-07T10:42:20.818Z,20.13
2022-08-07T10:45:44.784Z,20.05
2022-08-07T10:49:13.856Z,19.96
2022-08-07T10:52:13.200Z,19.87
2022-08-07T10:55:38.621Z,19.79
2022-08-07T10:58:47.439Z,19.71
2022-08-07T11:02:05.045Z,19.65
2022-08-07T11:05:51.209Z,19.58
2022-08-07T11:09:11.223Z,19.52
2022-08-07T11:13:01.558Z,19.46
2022-08-07T11:16:07.409Z,19.38
2022-08-07T11:19:43.946Z,19.29
2022-08-07T11:23:20.743Z,19.21
2022-08-07T11:27:01.215Z,19.14
2022-08-07T11:30:17.929Z,19.09
2022-08-07T11:33:14.040Z,19.03
2022-08-07T11:36:25.438Z,18.98
2022-08-07T11:40:01.248Z,18.93
2022-08-07T11:43:29.533Z,18.87
2022-08-07T11:47:30.579Z,18.80
2022-08-07T11:51:03.917Z,18.71
2022-08-07T11:54:32.846Z,18.63
2022-08-07T11:58:13.153Z,18.57
2022-08-07T12:01:22.651Z,18.49
2022-08-07T12:04:33.408Z,18.45
2022-08-07T12:08:04.098Z,18.40
2022-08-07T12:11:20.837Z,18.36
2022-08-07T12:14:43.499Z,18.31
2022-08-07T12:17:36.769Z,18.28
2022-08-07T12:20:52.064Z,18.22
2022-08-07T12:24:36.768Z,18.18
2022-08-07T12:27:14.957Z,18.12
2022-08-07T12:30:25.703Z,18.07
2022-08-07T12:33:09.284Z,18.03
2022-08-07T12:36:32.668Z,17.98
2022-08-07T12:39:44.074Z,17.92
2022-08-07T12:42:54.924Z,17.87
2022-08-07T12:45:30.636Z,17.83
2022-08-07T12:48:51.869Z,17.80
2022-08-07T12:52:27.020Z,17.74
2022-08-07T12:55:41.450Z,17.67
2022-08-07T12:58:53.281Z,17.60
2022-08-07T13:02:09.753Z,17.56
2022-08-07T13:06:03.453Z,17.52
2022-08-07T13:09:12.561Z,17.49
2022-08-07T13:12:39.314Z,17.45
2022-08-07T13:16:11.058Z,17.42
2022-08-07T13:19:50.813Z,17.39
2022-08-07T13:22:40.802Z,17.36
2022-08-07T13:25:41.773Z,17.34
2022-08-07T13:29:02.861Z,17.33
2022-08-07T13:32:32.581Z,17.33
2022-08-07T13:35:15.760Z,17.32
2022-08-07T13:38:39.696Z,17.31
2022-08-07T13:41:41.707Z,17.29
2022-08-07T13:44:13.716Z,17.29
2022-08-07T13:46:49.250Z,17.27
2022-08-07T13:50:34.238Z,17.28
2022-08-07T13:52:26.546Z,17.29
2022-08-07T13:55:54.317Z,17.30
2022-08-07T13:59:16.210Z,17.33
2022-08-07T14:02:10.892Z,17.37
2022-08-07T14:05:18.419Z,17.41
2022-08-07T14:08:37.239Z,17.45
2022-08-07T14:11:14.577Z,17.52
2022-08-07T14:14:20.879Z,17.56
2022-08-07T14:18:23.733Z,17.61
2022-08-07T14:22:00.995Z,17.70
2022-08-07T14:24:54.566Z,17.77
2022-08-07T14:28:12.426Z,17.86
2022-08-07T14:30:42.215Z,17.95
2022-08-07T14:33:45.306Z,18.04
2022-08-07T14:36:55.959Z,18.16
2022-08-07T14:40:15.849Z,18.29
2022-08-07T14:42:33.681Z,18.42
2022-08-07T14:48:32.595Z,18.74
2022-08-07T14:55:21.576Z,19.14
2022-08-07T14:58:06.044Z,19.34
2022-08-07T15:05:20.417Z,19.74
2022-08-07T15:08:50.328Z,19.95
2022-08-07T15:12:42.174Z,20.17
2022-08-07T15:16:11.085Z,20.39
2022-08-07T15:19:20.965Z,20.62
2022-08-07T15:22:51.530Z,20.84
2022-08-07T15:25:56.051Z,21.02
2022-08-07T15:36:01.599Z,21.69
2022-08-07T15:42:53.976Z,22.26
2022-08-07T15:46:01.596Z,22.58
2022-08-07T15:49:15.543Z,22.80
2022-08-07T15:52:30.473Z,23.06
2022-08-07T15:56:02.823Z,23.35
2022-08-07T15:59:17.472Z,23.73
2022-08-07T16:02:47.866Z,24.12
2022-08-07T16:05:48.422Z,24.55
2022-08-07T16:09:01.578Z,24.97
2022-08-07T16:12:04.897Z,25.50
2022-08-07T16:14:28.649Z,25.92
2022-08-07T16:18:01.697Z,26.23
2022-08-07T16:22:01.662Z,26.63
2022-08-07T16:25:11.237Z,26.99
2022-08-07T16:30:05.549Z,27.38
2022-08-07T16:32:34.940Z,27.66
2022-08-07T16:35:56.790Z,27.88
2022-08-07T16:39:05.047Z,28.08
2022-08-07T16:41:54.430Z,28.27
2022-08-07T16:46:47.583Z,28.44
2022-08-07T16:50:28.021Z,28.64
2022-08-07T16:52:50.748Z,28.74
2022-08-07T16:55:55.082Z,28.87
2022-08-07T16:59:10.001Z,28.95
2022-08-07T17:02:10.213Z,29.04
2022-08-07T17:06:02.284Z,29.14
2022-08-07T17:09:08.848Z,29.13
2022-08-07T17:11:28.275Z,29.24
2022-08-07T17:14:18.959Z,29.35
2022-08-07T17:16:57.367Z,29.48
2022-08-07T17:20:13.848Z,29.59
2022-08-07T17:23:18.039Z,29.74
2022-08-07T17:25:56.845Z,29.89
2022-08-07T17:28:26.324Z,29.98
2022-08-07T17:31:16.508Z,30.05
2022-08-07T17:34:32.831Z,30.11
2022-08-07T17:37:08.985Z,30.22
2022-08-07T17:40:03.120Z,30.40
2022-08-07T17:43:18.069Z,30.61
2022-08-07T17:45:35.290Z,30.72
2022-08-07T17:48:40.812Z,30.81
2022-08-07T17:51:23.025Z,31.00
2022-08-07T17:54:11.464Z,31.03
2022-08-07T17:56:36.270Z,31.07
2022-08-07T17:58:56.780Z,31.12
2022-08-07T18:01:21.442Z,31.20
2022-08-07T18:04:31.180Z,31.25
2022-08-07T18:07:34.076Z,31.37
2022-08-07T18:10:32.645Z,31.59
2022-08-07T18:13:40.649Z,31.81
2022-08-07T18:17:01.062Z,32.08
2022-08-07T18:21:11.870Z,32.27
2022-08-07T18:22:45.752Z,32.40
2022-08-07T18:25:40.491Z,32.44
2022-08-07T18:28:36.006Z,32.44
2022-08-07T18:32:16.007Z,32.55
2022-08-07T18:35:19.606Z,32.70
2022-08-07T18:38:58.641Z,32.77
2022-08-07T18:40:43.822Z,32.93
2022-08-07T18:43:58.073Z,33.09
2022-08-07T18:46:26.982Z,33.24
2022-08-07T18:50:30.814Z,33.36
2022-08-07T18:52:37.361Z,33.47
2022-08-07T18:55:40.617Z,33.55
2022-08-07T18:58:45.227Z,33.64
2022-08-07T19:02:32.432Z,33.80
2022-08-07T19:06:03.445Z,34.02
2022-08-07T19:08:53.393Z,34.23
2022-08-07T19:11:35.725Z,34.45
2022-08-07T19:14:08.139Z,34.62
2022-08-07T19:17:54.339Z,34.76
2022-08-07T19:21:08.985Z,34.97
2022-08-07T19:24:30.749Z,35.14
2022-08-07T19:28:57.981Z,35.26
2022-08-07T19:31:58.496Z,35.22
2022-08-07T19:34:53.193Z,35.24
2022-08-07T19:38:15.959Z,35.36
2022-08-07T19:41:07.470Z,35.53
2022-08-07T19:44:21.848Z,35.65
2022-08-07T19:47:16.217Z,35.80
2022-08-07T19:50:41.212Z,35.91
2022-08-07T19:54:29.853Z,35.97
2022-08-07T19:58:04.126Z,36.08
2022-08-07T20:00:54.323Z,36.12
2022-08-07T20:03:48.273Z,36.21
2022-08-07T20:07:23.782Z,36.29
2022-08-07T20:11:03.892Z,36.38
2022-08-07T20:14:53.609Z,36.44
2022-08-07T20:17:13.714Z,36.59
2022-08-07T20:20:05.713Z,36.70
2022-08-07T20:22:58.502Z,36.82
2022-08-07T20:25:51.121Z,36.87
2022-08-07T20:29:16.963Z,36.83
2022-08-07T20:32:11.285Z,36.94
2022-08-07T20:35:26.211Z,37.00
2022-08-07T20:38:01.480Z,37.11
2022-08-07T20:40:53.094Z,37.17
2022-08-07T20:44:10.340Z,37.19
2022-08-07T20:47:57.004Z,37.23
2022-08-07T20:50:49.451Z,37.24
2022-08-07T20:53:08.290Z,37.34
2022-08-07T20:56:00.357Z,37.42
2022-08-07T20:58:56.635Z,37.48
2022-08-07T21:01:26.603Z,37.52
2022-08-07T21:03:43.325Z,37.50
2022-08-07T21:06:42.405Z,37.50
2022-08-07T21:09:52.677Z,37.54
2022-08-07T21:12:31.419Z,37.61
2022-08-07T21:15:47.805Z,37.69
2022-08-07T21:18:50.528Z,37.74
2022-08-07T21:21:56.692Z,37.78
2022-08-07T21:24:38.826Z,37.87
2022-08-07T21:27:39.971Z,37.96
2022-08-07T21:30:30.159Z,38.00
2022-08-07T21:33:29.293Z,38.05
2022-08-07T21:37:03.169Z,38.17
2022-08-07T21:39:47.691Z,38.25
2022-08-07T21:43:07.025Z,38.28
2022-08-07T21:46:08.909Z,38.29
2022-08-07T21:49:30.461Z,38.29
2022-08-07T21:52:34.532Z,38.30
2022-08-07T21:55:38.700Z,38.32
2022-08-07T21:58:32.799Z,38.38
2022-08-07T22:01:14.033Z,38.42
2022-08-07T22:04:13.487Z,38.48
2022-08-07T22:07:57.855Z,38.48
2022-08-07T22:10:55.901Z,38.51
2022-08-07T22:13:51.298Z,38.53
2022-08-07T22:17:16.499Z,38.52
2022-08-07T22:19:58.564Z,38.54
2022-08-07T22:23:02.674Z,38.47
2022-08-07T22:26:06.137Z,38.46
2022-08-07T22:28:48.321Z,38.49
2022-08-07T22:32:00.143Z,38.50
2022-08-07T22:35:11.752Z,38.55
2022-08-07T22:38:48.267Z,38.58
2022-08-07T22:42:19.431Z,38.61
2022-08-07T22:46:40.527Z,38.67
2022-08-07T22:49:37.882Z,38.74
2022-08-07T22:52:45.908Z,38.69
2022-08-07T22:56:28.700Z,38.72
2022-08-07T22:59:49.716Z,38.76
2022-08-07T23:03:01.725Z,38.79
2022-08-07T23:06:31.611Z,38.83
2022-08-07T23:10:06.080Z,38.86
2022-08-07T23:12:51.782Z,38.89
2022-08-07T23:16:06.280Z,38.91
2022-08-07T23:18:57.213Z,38.91
2022-08-07T23:22:40.814Z,38.88
2022-08-07T23:26:23.491Z,38.83
2022-08-07T23:30:38.749Z,38.84
2022-08-07T23:34:35.434Z,38.87
2022-08-07T23:37:19.643Z,38.85
2022-08-07T23:40:51.844Z,38.83
2022-08-07T23:44:45.400Z,38.86
2022-08-07T23:48:09.508Z,38.88
2022-08-07T23:53:01.774Z,38.82
2022-08-07T23:55:05.026Z,38.71
2022-08-07T23:58:18.727Z,38.67
